Time;durP1;ratioP1;P1;durP2;ratioP2;P2;SDS_P1;SDS_P2;PMS_P1;PMS_P2;Temp;Humidity;BMP_temperature;BMP_pressure;BME280_temperature;BME280_humidity;BME280_pressure;Samples;Min_cycle;Max_cycle;Signal;HPM_P1;HPM_P2
2023/12/08 00:02:07;;;;;;;11.60;10.38;;;;;;;1.00;70.27;97447.31;5060048;28;20215;-71
2023/12/08 00:04:34;;;;;;;11.93;9.70;;;;;;;1.11;70.41;97471.03;5078050;28;20246;-72
2023/12/08 00:07:00;;;;;;;11.85;10.63;;;;;;;1.19;69.91;97479.06;5080354;28;20208;-71
2023/12/08 00:09:29;;;;;;;11.55;10.45;;;;;;;1.33;69.56;97486.47;5077877;28;20732;-71
2023/12/08 00:11:56;;;;;;;10.75;9.65;;;;;;;1.35;69.23;97479.16;5076643;28;20209;-72
2023/12/08 00:14:22;;;;;;;11.90;10.50;;;;;;;1.47;69.27;97481.56;5079604;28;20212;-72
2023/12/08 00:16:49;;;;;;;12.23;11.02;;;;;;;1.44;69.32;97471.22;5079675;28;20213;-71
2023/12/08 00:19:16;;;;;;;11.68;10.52;;;;;;;1.46;69.14;97463.88;5089367;28;20207;-72
2023/12/08 00:21:42;;;;;;;12.20;10.50;;;;;;;1.46;69.44;97455.88;5079459;28;20200;-72
2023/12/08 00:24:09;;;;;;;11.40;10.25;;;;;;;1.44;69.99;97429.38;5079203;28;20193;-72
2023/12/08 00:26:36;;;;;;;11.30;10.20;;;;;;;1.31;70.25;97423.66;5080502;28;20203;-72
2023/12/08 00:29:04;;;;;;;12.40;11.20;;;;;;;1.25;70.71;97413.66;5075773;28;20205;-71
2023/12/08 00:31:31;;;;;;;10.98;9.88;;;;;;;1.26;70.52;97416.16;5080088;28;20204;-72
2023/12/08 00:33:58;;;;;;;11.77;10.68;;;;;;;0.93;71.19;97409.00;5063792;28;20564;-72
2023/12/08 00:36:24;;;;;;;13.25;10.25;;;;;;;1.05;71.75;97378.41;5078437;28;20205;-72
2023/12/08 00:38:51;;;;;;;11.32;10.23;;;;;;;1.14;71.59;97396.09;5094676;28;20200;-71
2023/12/08 00:41:17;;;;;;;11.57;10.35;;;;;;;1.23;70.70;97399.66;5079132;28;20207;-72
2023/12/08 00:43:46;;;;;;;11.18;10.18;;;;;;;1.42;69.95;97419.88;5079917;28;20208;-71
2023/12/08 00:46:16;;;;;;;10.95;9.82;;;;;;;1.33;69.98;97419.00;5108287;27;20287;-73
2023/12/08 00:48:43;;;;;;;11.05;9.95;;;;;;;1.45;69.74;97393.75;5077939;28;20236;-72
2023/12/08 00:51:12;;;;;;;11.43;10.25;;;;;;;1.41;70.22;97381.72;5079012;28;20195;-72
2023/12/08 00:53:40;;;;;;;12.30;11.02;;;;;;;1.37;70.30;97361.72;5110549;27;20208;-71
2023/12/08 00:56:08;;;;;;;11.00;9.90;;;;;;;1.20;70.71;97363.50;5077775;28;20224;-71
2023/12/08 00:58:34;;;;;;;11.82;10.63;;;;;;;1.07;71.71;97389.72;5078173;28;20208;-71
2023/12/08 01:01:02;;;;;;;11.57;10.45;;;;;;;1.12;71.53;97408.75;5113928;27;20207;-72
2023/12/08 01:03:29;;;;;;;13.55;9.95;;;;;;;1.29;71.02;97423.84;5081568;28;20212;-72
2023/12/08 01:05:55;;;;;;;11.18;10.07;;;;;;;1.55;69.59;97417.59;5075572;28;20211;-72
2023/12/08 01:08:22;;;;;;;12.05;10.30;;;;;;;1.42;69.76;97420.72;5079279;28;20552;-72
2023/12/08 01:10:48;;;;;;;12.25;10.10;;;;;;;1.42;70.31;97399.38;5077780;28;20204;-72
2023/12/08 01:13:15;;;;;;;12.18;10.93;;;;;;;1.37;70.71;97380.38;5093715;28;20649;-71
2023/12/08 01:15:42;;;;;;;12.02;10.68;;;;;;;1.26;71.06;97368.19;5060248;28;20224;-71
2023/12/08 01:18:10;;;;;;;11.52;10.30;;;;;;;1.15;71.16;97355.16;5078567;28;20672;-71
2023/12/08 01:20:37;;;;;;;12.68;11.32;;;;;;;1.11;71.69;97339.63;5063868;28;20649;-71
2023/12/08 01:23:04;;;;;;;17.40;11.05;;;;;;;1.20;71.53;97338.69;5076772;28;20637;-72
2023/12/08 01:25:30;;;;;;;11.52;10.32;;;;;;;1.25;71.24;97352.38;5058246;28;20203;-72
2023/12/08 01:27:57;;;;;;;12.25;9.80;;;;;;;1.40;70.32;97339.22;5060367;28;20207;-71
2023/12/08 01:30:24;;;;;;;10.68;9.68;;;;;;;1.28;70.59;97333.38;5078101;28;20208;-72
2023/12/08 01:32:51;;;;;;;14.82;10.02;;;;;;;1.35;70.31;97340.56;5064333;28;20197;-72
2023/12/08 01:35:18;;;;;;;13.52;10.77;;;;;;;1.31;69.97;97360.53;5078321;28;20273;-71
2023/12/08 01:37:45;;;;;;;12.18;10.90;;;;;;;1.36;70.09;97389.38;5108266;27;20234;-71
2023/12/08 01:40:13;;;;;;;13.95;10.43;;;;;;;1.45;69.38;97393.75;5075465;28;20188;-72
2023/12/08 01:42:39;;;;;;;11.13;10.13;;;;;;;1.44;69.76;97385.91;5082494;28;20196;-72
2023/12/08 01:45:08;;;;;;;9.93;8.93;;;;;;;1.49;70.08;97376.44;5076630;28;20717;-71
2023/12/08 01:47:35;;;;;;;11.38;10.27;;;;;;;1.65;69.99;97371.13;5057204;28;20252;-72
2023/12/08 01:50:02;;;;;;;12.10;10.80;;;;;;;1.74;69.95;97361.31;5081897;28;20708;-72
2023/12/08 01:52:31;;;;;;;12.30;11.02;;;;;;;1.56;70.84;97373.97;5076951;28;20200;-72
2023/12/08 01:54:59;;;;;;;14.07;11.18;;;;;;;1.56;71.12;97365.97;5075647;28;20216;-72
2023/12/08 01:57:26;;;;;;;11.70;10.60;;;;;;;1.63;70.66;97359.78;5073796;28;20229;-72
2023/12/08 01:59:53;;;;;;;13.57;11.25;;;;;;;1.75;70.35;97354.16;5079473;28;20192;-72
2023/12/08 02:02:20;;;;;;;12.07;10.77;;;;;;;1.62;70.69;97358.16;5077785;28;20199;-72
2023/12/08 02:04:49;;;;;;;11.13;10.02;;;;;;;1.68;70.21;97364.63;5079858;28;20228;-71
2023/12/08 02:07:16;;;;;;;11.38;10.27;;;;;;;1.75;69.77;97367.50;5077292;28;20218;-71
2023/12/08 02:09:45;;;;;;;10.88;9.68;;;;;;;1.77;69.61;97365.50;5073321;28;20210;-71
2023/12/08 02:12:12;;;;;;;10.98;9.85;;;;;;;1.79;69.44;97364.34;5064613;28;20208;-72
2023/12/08 02:14:39;;;;;;;10.98;9.98;;;;;;;1.43;69.60;97354.91;5060697;28;20238;-73
2023/12/08 02:17:08;;;;;;;11.48;10.27;;;;;;;1.61;69.60;97355.63;5076912;28;20208;-71
2023/12/08 02:19:35;;;;;;;11.65;10.52;;;;;;;1.57;69.70;97354.28;5060752;28;20211;-71
2023/12/08 02:22:02;;;;;;;11.68;10.57;;;;;;;1.55;69.97;97350.97;5075532;28;20197;-71
2023/12/08 02:24:30;;;;;;;11.68;10.50;;;;;;;1.47;70.29;97353.59;5071205;28;20203;-71
2023/12/08 02:26:56;;;;;;;10.45;9.40;;;;;;;1.72;69.38;97347.31;5078386;28;20200;-71
2023/12/08 02:29:23;;;;;;;11.32;10.23;;;;;;;1.77;69.10;97352.16;5075078;28;20196;-71
2023/12/08 02:31:55;;;;;;;10.50;9.50;;;;;;;1.79;68.85;97359.00;5077079;28;20196;-71
2023/12/08 02:34:24;;;;;;;10.90;9.80;;;;;;;1.49;69.58;97348.94;5061908;28;20207;-71
2023/12/08 02:36:52;;;;;;;11.23;10.02;;;;;;;1.35;70.22;97337.06;5060810;28;20294;-71
2023/12/08 02:39:20;;;;;;;11.70;10.50;;;;;;;1.46;70.03;97342.09;5076382;28;20201;-71
2023/12/08 02:41:48;;;;;;;11.63;10.43;;;;;;;1.57;69.67;97348.97;5077408;28;20570;-71
2023/12/08 02:44:14;;;;;;;11.82;10.43;;;;;;;1.49;70.00;97351.59;5091654;28;20209;-71
2023/12/08 02:46:41;;;;;;;13.10;11.40;;;;;;;1.51;70.07;97350.44;5090689;28;20219;-71
2023/12/08 02:49:07;;;;;;;11.80;10.60;;;;;;;1.63;69.88;97342.94;5071752;28;20202;-71
2023/12/08 02:51:34;;;;;;;12.55;10.65;;;;;;;1.35;70.60;97340.56;5077922;28;20200;-71
2023/12/08 02:54:01;;;;;;;10.85;9.75;;;;;;;1.38;70.57;97341.22;5074488;28;20207;-71
2023/12/08 02:56:27;;;;;;;11.73;10.15;;;;;;;1.40;70.71;97341.91;5061088;28;20224;-71
2023/12/08 02:58:56;;;;;;;11.60;10.15;;;;;;;1.42;70.70;97345.25;5095064;28;20561;-72
2023/12/08 03:01:23;;;;;;;11.95;10.75;;;;;;;1.49;70.42;97339.09;5077815;28;20231;-71
2023/12/08 03:03:49;;;;;;;11.57;10.38;;;;;;;1.63;70.27;97342.94;5040642;28;20215;-71
2023/12/08 03:06:16;;;;;;;12.25;9.73;;;;;;;1.40;70.65;97315.25;5060276;28;20211;-71
2023/12/08 03:08:43;;;;;;;11.00;10.00;;;;;;;1.66;70.06;97338.13;5061547;28;20200;-71
2023/12/08 03:11:09;;;;;;;10.88;9.77;;;;;;;1.54;70.00;97326.13;5075302;28;20212;-71
2023/12/08 03:13:36;;;;;;;13.63;11.20;;;;;;;1.46;70.39;97317.25;5079071;28;20658;-71
2023/12/08 03:16:05;;;;;;;10.82;9.60;;;;;;;1.52;70.23;97319.28;5075796;28;20223;-71
2023/12/08 03:18:31;;;;;;;10.38;9.38;;;;;;;1.58;69.98;97319.47;5060116;28;20215;-71
2023/12/08 03:20:58;;;;;;;12.18;10.98;;;;;;;1.68;69.78;97304.13;5075761;28;20227;-71
2023/12/08 03:23:25;;;;;;;12.10;10.90;;;;;;;1.75;69.24;97292.81;5075805;28;21083;-71
2023/12/08 03:25:51;;;;;;;12.23;10.32;;;;;;;1.73;69.06;97300.13;5040334;28;20203;-71
2023/12/08 03:28:18;;;;;;;12.07;10.13;;;;;;;1.77;68.75;97323.66;5076420;28;20208;-71
2023/12/08 03:30:44;;;;;;;10.82;9.70;;;;;;;1.91;68.02;97309.66;5073695;28;20208;-70
2023/12/08 03:33:12;;;;;;;10.70;9.57;;;;;;;1.92;68.32;97303.34;5078084;28;20204;-71
2023/12/08 03:35:39;;;;;;;12.18;9.60;;;;;;;1.73;69.14;97292.97;5076564;28;20217;-71
2023/12/08 03:38:05;;;;;;;11.32;10.18;;;;;;;1.79;68.97;97302.97;5076029;28;20215;-71
2023/12/08 03:40:32;;;;;;;11.68;10.43;;;;;;;1.90;68.77;97321.34;5057778;28;20200;-71
2023/12/08 03:42:58;;;;;;;11.43;10.32;;;;;;;1.66;69.23;97307.97;5059559;28;20204;-70
2023/12/08 03:45:25;;;;;;;10.85;9.35;;;;;;;1.49;70.04;97301.78;5059873;28;20206;-70
2023/12/08 03:47:51;;;;;;;12.02;10.43;;;;;;;1.62;69.98;97315.47;5075646;28;20227;-70
2023/12/08 03:50:19;;;;;;;11.80;10.32;;;;;;;1.70;69.40;97325.31;5073468;28;20199;-70
2023/12/08 03:52:45;;;;;;;10.93;9.85;;;;;;;1.72;69.46;97325.13;5076229;28;20569;-71
2023/12/08 03:55:12;;;;;;;11.05;9.75;;;;;;;1.70;69.31;97333.31;5076247;28;20224;-70
2023/12/08 03:57:40;;;;;;;14.07;10.95;;;;;;;1.89;68.95;97321.50;5060378;28;20215;-71
2023/12/08 04:00:10;;;;;;;11.52;10.38;;;;;;;1.80;69.03;97319.81;5060680;28;20268;-70
2023/12/08 04:02:38;;;;;;;12.32;11.13;;;;;;;1.67;69.08;97313.13;5073093;28;20215;-70
2023/12/08 04:05:05;;;;;;;13.23;11.68;;;;;;;1.54;69.91;97293.28;5074452;28;20537;-72
2023/12/08 04:07:34;;;;;;;11.80;10.63;;;;;;;1.38;69.97;97295.91;5076367;28;20676;-71
2023/12/08 04:10:00;;;;;;;12.30;11.05;;;;;;;1.24;70.88;97303.56;5073027;28;20261;-71
2023/12/08 04:12:27;;;;;;;12.63;11.02;;;;;;;1.26;71.27;97330.03;5079289;28;20204;-71
2023/12/08 04:14:53;;;;;;;13.10;11.43;;;;;;;1.26;71.60;97328.22;5076555;28;20288;-71
2023/12/08 04:17:21;;;;;;;11.75;9.88;;;;;;;1.49;71.14;97335.59;5111404;28;20203;-71
2023/12/08 04:19:47;;;;;;;11.40;10.25;;;;;;;1.61;70.92;97323.63;5080539;28;20480;-71
2023/12/08 04:22:14;;;;;;;12.30;11.00;;;;;;;1.48;71.30;97328.59;5082411;28;20214;-71
2023/12/08 04:24:42;;;;;;;11.88;10.75;;;;;;;1.49;71.09;97330.28;5078562;28;20278;-71
2023/12/08 04:27:10;;;;;;;12.73;11.48;;;;;;;1.48;71.06;97333.94;5076082;28;20201;-71
2023/12/08 04:29:36;;;;;;;13.65;11.10;;;;;;;1.50;71.18;97337.28;5079266;28;20213;-71
2023/12/08 04:32:03;;;;;;;13.98;11.15;;;;;;;1.51;71.43;97336.28;5077834;28;20208;-71
2023/12/08 04:34:31;;;;;;;11.68;10.38;;;;;;;1.50;71.21;97323.94;5080369;28;20200;-71
2023/12/08 04:36:58;;;;;;;12.07;10.88;;;;;;;1.57;71.24;97323.13;5077231;28;20235;-71
2023/12/08 04:39:24;;;;;;;13.35;10.93;;;;;;;1.51;71.31;97328.28;5081776;28;20204;-71
2023/12/08 04:41:52;;;;;;;11.52;9.98;;;;;;;1.56;71.04;97328.63;5049104;28;20664;-71
2023/12/08 04:44:19;;;;;;;11.32;10.05;;;;;;;1.55;71.23;97332.28;5081088;28;20209;-71
2023/12/08 04:46:45;;;;;;;11.43;9.48;;;;;;;1.69;70.51;97336.97;5072164;28;20191;-71
2023/12/08 04:49:12;;;;;;;10.88;9.65;;;;;;;1.56;70.94;97320.63;5079661;28;20232;-71
2023/12/08 04:51:41;;;;;;;10.90;9.80;;;;;;;1.50;71.26;97326.59;5064424;28;20265;-71
2023/12/08 04:54:08;;;;;;;12.10;10.98;;;;;;;1.45;73.02;97318.25;5047488;28;20637;-71
2023/12/08 04:56:35;;;;;;;11.48;10.27;;;;;;;1.16;74.53;97322.19;5075355;28;20217;-71
2023/12/08 04:59:08;;;;;;;11.95;10.15;;;;;;;1.06;76.23;97315.31;5080119;28;20200;-71
2023/12/08 05:01:35;;;;;;;11.95;10.63;;;;;;;0.94;77.54;97315.59;5078602;28;20279;-71
2023/12/08 05:04:02;;;;;;;11.23;9.77;;;;;;;1.00;77.44;97312.28;5059838;28;20211;-71
2023/12/08 05:06:29;;;;;;;12.95;11.05;;;;;;;1.06;76.87;97305.47;5075826;28;20676;-71
2023/12/08 05:08:56;;;;;;;12.55;10.60;;;;;;;1.25;76.66;97297.22;5064494;28;20204;-71
2023/12/08 05:11:23;;;;;;;11.77;10.57;;;;;;;1.52;78.65;97289.97;5081419;28;20214;-73
2023/12/08 05:13:49;;;;;;;12.18;9.73;;;;;;;3.06;75.50;97270.19;5055509;28;20207;-73
2023/12/08 05:16:17;;;;;;;10.02;8.98;;;;;;;2.38;72.98;97276.94;5057259;28;20232;-74
2023/12/08 05:18:44;;;;;;;10.48;9.48;;;;;;;1.88;74.59;97280.66;5072716;28;20288;-71
2023/12/08 05:21:10;;;;;;;12.30;11.10;;;;;;;1.49;76.82;97282.28;5081688;28;20606;-70
2023/12/08 05:23:37;;;;;;;11.90;10.63;;;;;;;1.57;77.75;97274.31;5082572;28;20208;-70
2023/12/08 05:26:04;;;;;;;10.77;9.68;;;;;;;1.32;78.54;97276.91;5073289;28;20205;-71
2023/12/08 05:28:31;;;;;;;11.85;10.65;;;;;;;1.33;78.68;97283.06;5077945;28;20212;-70
2023/12/08 05:30:57;;;;;;;11.98;10.77;;;;;;;1.40;79.97;97289.41;5079601;28;20218;-70
2023/12/08 05:33:25;;;;;;;15.65;11.90;;;;;;;1.37;80.75;97279.09;5063985;28;20203;-70
2023/12/08 05:35:52;;;;;;;13.43;10.63;;;;;;;1.34;80.62;97274.91;5074576;28;20232;-72
2023/12/08 05:38:18;;;;;;;13.52;11.95;;;;;;;1.23;82.25;97272.56;5057310;28;20696;-69
2023/12/08 05:40:45;;;;;;;13.25;11.85;;;;;;;1.20;82.26;97275.56;5075469;28;20555;-71
2023/12/08 05:43:12;;;;;;;15.05;12.10;;;;;;;1.23;82.72;97277.91;5075380;28;20267;-69
2023/12/08 05:45:38;;;;;;;12.73;11.40;;;;;;;1.29;83.03;97279.09;5086841;28;20203;-69
2023/12/08 05:48:05;;;;;;;16.30;12.35;;;;;;;1.30;83.06;97281.56;5071587;28;20205;-69
2023/12/08 05:50:34;;;;;;;14.02;12.50;;;;;;;1.40;83.83;97283.25;5072390;28;20195;-69
2023/12/08 05:53:00;;;;;;;12.32;11.07;;;;;;;1.32;84.33;97292.06;5076667;28;20657;-70
2023/12/08 05:55:27;;;;;;;14.25;12.25;;;;;;;1.17;85.38;97286.53;5073282;28;20557;-69
2023/12/08 05:57:53;;;;;;;16.38;12.95;;;;;;;1.16;86.25;97284.88;5070792;28;20260;-69
2023/12/08 06:00:20;;;;;;;16.63;13.73;;;;;;;1.18;86.96;97282.88;5076137;28;20214;-69
2023/12/08 06:02:48;;;;;;;14.15;12.10;;;;;;;1.22;86.90;97294.88;5071719;28;20211;-69
2023/12/08 06:05:15;;;;;;;14.50;12.85;;;;;;;1.28;86.19;97286.25;5070752;28;20199;-69
2023/12/08 06:07:44;;;;;;;15.00;13.50;;;;;;;1.26;86.73;97284.75;5073498;28;20197;-69
2023/12/08 06:10:11;;;;;;;15.27;12.50;;;;;;;1.39;86.26;97302.91;5069242;28;20196;-70
2023/12/08 06:12:38;;;;;;;17.52;13.48;;;;;;;1.28;86.05;97293.41;5073338;28;20211;-70
2023/12/08 06:15:07;;;;;;;17.55;15.25;;;;;;;1.43;85.80;97294.44;5069220;28;20200;-70
2023/12/08 06:17:33;;;;;;;18.35;14.90;;;;;;;1.36;85.72;97293.41;5073790;28;20224;-71
2023/12/08 06:20:00;;;;;;;15.70;13.82;;;;;;;1.28;86.11;97286.25;5066689;28;20215;-69
2023/12/08 06:22:26;;;;;;;19.15;14.40;;;;;;;1.37;85.93;97294.25;5077019;28;20205;-69
2023/12/08 06:24:55;;;;;;;18.58;14.30;;;;;;;1.28;86.64;97293.41;5055698;28;20313;-69
2023/12/08 06:27:21;;;;;;;16.73;14.70;;;;;;;1.27;86.88;97292.56;5069451;28;20204;-70
2023/12/08 06:29:50;;;;;;;15.88;13.25;;;;;;;1.33;86.22;97304.38;5077926;28;20211;-70
2023/12/08 06:32:16;;;;;;;18.02;13.90;;;;;;;1.26;86.20;97301.56;5072608;28;20201;-70
2023/12/08 06:34:43;;;;;;;19.27;16.48;;;;;;;1.38;86.86;97311.91;5077199;28;20204;-71
2023/12/08 06:37:09;;;;;;;15.45;13.65;;;;;;;1.49;85.80;97308.94;5078627;28;20700;-70
2023/12/08 06:39:36;;;;;;;19.90;15.38;;;;;;;1.35;85.95;97307.72;5074993;28;20199;-70
2023/12/08 06:42:05;;;;;;;17.08;15.02;;;;;;;1.17;87.39;97299.88;5074408;28;20292;-69
2023/12/08 06:44:32;;;;;;;19.27;16.70;;;;;;;1.27;87.99;97297.06;5070478;28;20673;-69
2023/12/08 06:46:58;;;;;;;21.45;16.58;;;;;;;1.17;88.20;97302.53;5077442;28;20603;-69
2023/12/08 06:49:25;;;;;;;22.40;16.58;;;;;;;1.11;88.19;97303.16;5078423;28;20202;-70
2023/12/08 06:51:51;;;;;;;19.30;16.55;;;;;;;1.13;88.83;97303.84;5077101;28;20204;-71
2023/12/08 06:54:19;;;;;;;22.10;17.52;;;;;;;1.21;88.86;97311.03;5076772;28;20672;-72
2023/12/08 06:56:45;;;;;;;20.08;16.65;;;;;;;1.33;88.62;97312.38;5071473;28;20222;-71
2023/12/08 06:59:14;;;;;;;17.05;15.25;;;;;;;1.40;88.68;97309.91;5075065;28;20203;-71
2023/12/08 07:01:41;;;;;;;20.42;17.13;;;;;;;1.40;88.25;97304.56;5074544;28;20200;-71
2023/12/08 07:04:08;;;;;;;26.40;19.80;;;;;;;1.15;89.05;97307.19;5076245;28;20608;-71
2023/12/08 07:06:34;;;;;;;19.85;17.13;;;;;;;1.23;89.77;97309.88;5089566;28;20188;-71
2023/12/08 07:09:01;;;;;;;23.92;19.45;;;;;;;1.14;89.95;97310.84;5077410;28;20763;-71
2023/12/08 07:11:29;;;;;;;25.27;19.05;;;;;;;1.28;89.72;97312.91;5070313;28;20239;-72
2023/12/08 07:13:56;;;;;;;23.65;19.35;;;;;;;1.15;89.80;97307.19;5079314;28;20214;-71
2023/12/08 07:16:24;;;;;;;23.70;18.48;;;;;;;1.04;90.20;97304.81;5075991;28;20235;-72
2023/12/08 07:18:51;;;;;;;20.13;17.75;;;;;;;1.19;91.58;97313.03;5075921;28;20695;-71
2023/12/08 07:21:17;;;;;;;20.58;18.38;;;;;;;1.25;90.44;97313.22;5059003;28;20205;-71
2023/12/08 07:23:44;;;;;;;21.95;17.08;;;;;;;1.35;90.72;97313.91;5076408;28;20549;-71
2023/12/08 07:26:11;;;;;;;20.60;18.27;;;;;;;1.47;89.86;97310.94;5074807;28;20204;-71
2023/12/08 07:28:37;;;;;;;20.77;17.52;;;;;;;1.29;90.46;97314.56;5076166;28;20887;-71
2023/12/08 07:31:04;;;;;;;22.42;19.05;;;;;;;1.33;91.00;97310.56;5075058;28;20527;-71
2023/12/08 07:33:33;;;;;;;25.02;18.70;;;;;;;1.37;91.20;97313.72;5070350;28;20249;-71
2023/12/08 07:35:59;;;;;;;20.67;17.60;;;;;;;1.41;91.14;97311.59;5074610;28;20246;-72
2023/12/08 07:38:26;;;;;;;23.08;19.40;;;;;;;1.37;91.73;97315.56;5043479;28;20200;-71
2023/12/08 07:40:53;;;;;;;21.38;18.88;;;;;;;1.35;91.70;97310.41;5072171;28;20196;-71
2023/12/08 07:43:19;;;;;;;24.55;19.80;;;;;;;1.32;92.25;97314.22;5057614;28;20614;-71
2023/12/08 07:45:46;;;;;;;24.13;18.92;;;;;;;1.35;92.22;97313.06;5075402;28;20705;-71
2023/12/08 07:48:12;;;;;;;21.25;18.50;;;;;;;1.51;92.42;97312.28;5068802;28;20197;-71
2023/12/08 07:50:41;;;;;;;24.95;20.92;;;;;;;1.29;92.82;97314.56;5075383;28;20196;-71
2023/12/08 07:53:07;;;;;;;24.95;21.15;;;;;;;1.29;93.47;97314.56;5076182;28;20201;-71
2023/12/08 07:55:34;;;;;;;25.77;21.50;;;;;;;1.27;94.10;97321.88;5078148;28;20574;-71
2023/12/08 07:58:00;;;;;;;29.60;21.60;;;;;;;1.28;94.35;97328.88;5064165;28;20224;-71
2023/12/08 08:00:27;;;;;;;26.83;22.77;;;;;;;1.41;94.15;97328.41;5078175;28;20214;-71
2023/12/08 08:02:54;;;;;;;21.73;19.42;;;;;;;1.72;93.91;97322.47;5077732;28;20208;-71
2023/12/08 08:05:21;;;;;;;27.15;22.35;;;;;;;1.83;93.52;97324.84;5079587;28;20295;-71
2023/12/08 08:07:49;;;;;;;24.33;21.30;;;;;;;1.97;93.15;97332.16;5080970;28;20207;-71
2023/12/08 08:10:15;;;;;;;29.25;21.50;;;;;;;1.99;93.65;97332.84;5078651;28;20203;-71
2023/12/08 08:12:42;;;;;;;21.60;19.05;;;;;;;2.14;93.11;97333.84;5083528;28;20204;-71
2023/12/08 08:15:09;;;;;;;24.13;19.45;;;;;;;2.11;93.35;97336.84;5078976;28;20202;-71
2023/12/08 08:17:36;;;;;;;28.08;21.88;;;;;;;2.19;93.02;97333.34;5080776;28;20217;-71
2023/12/08 08:20:03;;;;;;;27.35;21.98;;;;;;;2.12;93.11;97327.00;5077744;28;20200;-71
2023/12/08 08:22:30;;;;;;;24.52;20.05;;;;;;;2.01;93.58;97336.16;5079920;28;20197;-71
2023/12/08 08:24:58;;;;;;;29.38;23.10;;;;;;;2.01;94.07;97331.66;5081772;28;20215;-71
2023/12/08 08:27:25;;;;;;;24.65;20.92;;;;;;;2.08;94.46;97331.00;5096970;28;20275;-71
2023/12/08 08:29:51;;;;;;;27.45;20.45;;;;;;;2.25;94.13;97343.38;5079746;28;20283;-71
2023/12/08 08:32:18;;;;;;;30.38;22.92;;;;;;;2.26;93.96;97345.03;5112781;27;20192;-71
2023/12/08 08:34:44;;;;;;;28.25;22.73;;;;;;;2.21;94.21;97350.03;5081234;28;20206;-71
2023/12/08 08:37:11;;;;;;;25.45;21.65;;;;;;;2.33;94.28;97352.19;5079950;28;20220;-71
2023/12/08 08:39:38;;;;;;;23.17;20.67;;;;;;;2.58;93.78;97350.34;5079547;28;20204;-71
2023/12/08 08:42:06;;;;;;;24.27;20.63;;;;;;;2.58;93.75;97355.69;5077513;28;20204;-71
2023/12/08 08:44:32;;;;;;;23.17;20.67;;;;;;;2.75;93.27;97352.97;5096254;28;20204;-71
2023/12/08 08:46:59;;;;;;;24.55;21.50;;;;;;;2.66;93.05;97360.16;5080630;28;20222;-71
2023/12/08 08:49:25;;;;;;;26.38;21.40;;;;;;;2.73;93.45;97360.31;5079099;28;20210;-71
2023/12/08 08:51:52;;;;;;;29.35;21.85;;;;;;;2.72;93.26;97362.16;5095203;28;20231;-71
2023/12/08 08:54:20;;;;;;;23.25;19.88;;;;;;;2.73;93.26;97363.00;5079491;28;20196;-71
2023/12/08 08:56:46;;;;;;;25.38;21.45;;;;;;;2.74;93.60;97356.66;5077457;28;20581;-71
2023/12/08 08:59:14;;;;;;;23.90;20.88;;;;;;;2.76;93.94;97365.34;5079614;28;20219;-71
2023/12/08 09:01:42;;;;;;;27.30;22.40;;;;;;;2.69;93.39;97365.16;5076090;28;20207;-71
2023/12/08 09:04:08;;;;;;;28.67;21.50;;;;;;;2.82;93.44;97361.97;5079302;28;20237;-71
2023/12/08 09:06:35;;;;;;;29.85;20.90;;;;;;;2.82;93.18;97362.81;5079019;28;20203;-71
2023/12/08 09:09:03;;;;;;;26.02;20.95;;;;;;;2.87;93.60;97354.28;5079719;28;20565;-71
2023/12/08 09:11:32;;;;;;;21.10;18.45;;;;;;;2.95;93.65;97362.28;5079000;28;20254;-71
2023/12/08 09:13:59;;;;;;;23.10;20.10;;;;;;;3.14;92.75;97356.53;5063397;28;20291;-71
2023/12/08 09:16:27;;;;;;;22.85;20.52;;;;;;;3.19;92.23;97364.06;5080240;28;20208;-71
2023/12/08 09:18:53;;;;;;;21.58;18.90;;;;;;;3.36;91.68;97366.47;5075018;28;20230;-71
2023/12/08 09:21:20;;;;;;;20.05;17.45;;;;;;;3.15;92.00;97368.06;5060793;28;20203;-71
2023/12/08 09:23:47;;;;;;;23.13;18.98;;;;;;;3.23;91.87;97360.88;5070262;28;20639;-71
2023/12/08 09:26:14;;;;;;;22.40;20.00;;;;;;;3.08;92.54;97372.44;5072676;28;20204;-71
2023/12/08 09:28:41;;;;;;;23.15;19.77;;;;;;;3.17;92.58;97372.25;5078649;28;20203;-71
2023/12/08 09:31:07;;;;;;;24.80;20.85;;;;;;;2.86;93.31;97366.00;5076793;28;20200;-71
2023/12/08 09:33:37;;;;;;;26.92;21.55;;;;;;;2.99;93.80;97366.28;5079336;28;20240;-71
2023/12/08 09:36:04;;;;;;;25.92;19.80;;;;;;;3.16;93.87;97370.56;5080870;28;20204;-71
2023/12/08 09:38:31;;;;;;;28.08;22.77;;;;;;;3.14;93.31;97361.06;5061724;28;20243;-71
2023/12/08 09:40:58;;;;;;;25.65;22.00;;;;;;;3.12;93.62;97355.88;5076741;28;20561;-71
2023/12/08 09:43:29;;;;;;;24.55;21.73;;;;;;;3.28;93.63;97357.66;5063142;28;20207;-71
2023/12/08 09:45:57;;;;;;;27.15;21.23;;;;;;;3.21;93.79;97359.38;5076284;28;20239;-71
2023/12/08 09:48:25;;;;;;;26.30;21.88;;;;;;;3.24;93.80;97359.03;5080520;28;20789;-71
2023/12/08 09:50:54;;;;;;;29.92;23.65;;;;;;;3.31;93.62;97365.31;5078469;28;20669;-71
2023/12/08 09:53:21;;;;;;;28.00;23.38;;;;;;;3.36;93.53;97360.28;5079947;28;20566;-71
2023/12/08 09:55:48;;;;;;;29.45;23.55;;;;;;;3.29;93.94;97359.31;5076571;28;20227;-71
2023/12/08 09:58:15;;;;;;;29.85;24.02;;;;;;;3.30;94.22;97359.16;5076764;28;20227;-71
2023/12/08 10:00:42;;;;;;;31.77;23.35;;;;;;;3.15;95.24;97358.22;5060678;28;20200;-71
2023/12/08 10:03:09;;;;;;;32.20;25.25;;;;;;;3.43;94.82;97349.75;5074422;28;20197;-71
2023/12/08 10:05:35;;;;;;;34.83;26.45;;;;;;;3.48;94.41;97347.38;5090398;28;20291;-76
2023/12/08 10:08:04;;;;;;;35.10;25.98;;;;;;;3.47;94.47;97351.91;5094143;28;20205;-70
2023/12/08 10:10:30;;;;;;;29.75;24.52;;;;;;;3.47;94.75;97346.53;5077035;28;20279;-76
2023/12/08 10:12:58;;;;;;;36.30;26.85;;;;;;;3.64;94.44;97347.28;5076732;28;20234;-77
2023/12/08 10:15:25;;;;;;;31.15;24.60;;;;;;;3.91;93.98;97360.16;5085753;28;20352;-71
2023/12/08 10:17:52;;;;;;;33.05;25.20;;;;;;;3.88;94.13;97355.19;5073823;28;20213;-71
2023/12/08 10:20:20;;;;;;;27.40;22.60;;;;;;;3.84;93.98;97353.03;5067398;27;20301;-71
2023/12/08 10:22:48;;;;;;;38.38;23.25;;;;;;;3.93;93.75;97347.44;5075291;28;20196;-71
2023/12/08 10:25:17;;;;;;;26.85;22.88;;;;;;;3.89;94.23;97346.16;5107661;27;20688;-71
2023/12/08 10:27:46;;;;;;;26.92;22.25;;;;;;;3.82;94.50;97349.69;5076624;28;20530;-71
2023/12/08 10:30:14;;;;;;;27.95;21.85;;;;;;;3.81;94.93;97348.88;5077254;28;20207;-71
2023/12/08 10:32:40;;;;;;;25.83;21.85;;;;;;;3.89;95.04;97351.50;5078984;28;20302;-71
2023/12/08 10:35:10;;;;;;;27.50;22.90;;;;;;;3.86;95.17;97346.50;5077840;28;20199;-70
2023/12/08 10:37:36;;;;;;;23.42;19.70;;;;;;;3.98;94.86;97345.06;5074711;28;20229;-71
2023/12/08 10:40:04;;;;;;;27.20;21.63;;;;;;;4.16;94.27;97343.94;5078611;28;20212;-72
2023/12/08 10:42:33;;;;;;;23.90;20.80;;;;;;;4.11;94.41;97349.00;5075949;28;20250;-71
2023/12/08 10:45:00;;;;;;;23.60;19.42;;;;;;;4.22;94.78;97343.22;5060276;28;20215;-71
2023/12/08 10:47:27;;;;;;;25.48;21.40;;;;;;;4.23;94.35;97347.53;5077235;28;20203;-71
2023/12/08 10:49:55;;;;;;;24.98;21.02;;;;;;;4.22;94.85;97345.91;5074530;28;20311;-71
2023/12/08 10:52:23;;;;;;;26.08;21.70;;;;;;;4.28;94.54;97346.00;5044334;28;20217;-71
2023/12/08 10:54:50;;;;;;;23.58;21.05;;;;;;;4.27;94.73;97340.81;5070728;28;20203;-70
2023/12/08 10:57:18;;;;;;;25.45;20.75;;;;;;;4.41;94.70;97340.03;5076914;28;20211;-74
2023/12/08 10:59:46;;;;;;;27.85;20.88;;;;;;;4.33;95.02;97334.75;5077524;28;20207;-74
2023/12/08 11:02:17;;;;;;;23.63;19.77;;;;;;;4.57;94.33;97334.53;5079204;28;20226;-74
2023/12/08 11:04:45;;;;;;;24.90;20.35;;;;;;;4.61;93.83;97332.31;5079316;28;20283;-74
2023/12/08 11:07:15;;;;;;;21.73;19.38;;;;;;;4.59;94.14;97329.81;5074493;28;20192;-74
2023/12/08 11:09:42;;;;;;;24.75;20.15;;;;;;;4.63;94.22;97339.16;5080230;28;20243;-75
2023/12/08 11:12:11;;;;;;;22.65;18.73;;;;;;;4.58;94.39;97330.81;5080644;28;20208;-74
2023/12/08 11:14:39;;;;;;;22.02;18.25;;;;;;;4.70;94.08;97324.03;5075994;28;20219;-74
2023/12/08 11:17:12;;;;;;;20.25;17.33;;;;;;;4.75;93.67;97320.78;5077444;28;20274;-74
2023/12/08 11:19:41;;;;;;;22.65;17.40;;;;;;;5.00;93.47;97334.75;5058911;28;20200;-75
2023/12/08 11:22:08;;;;;;;17.63;15.82;;;;;;;4.94;93.53;97340.84;5080291;28;20208;-75
2023/12/08 11:24:36;;;;;;;19.25;17.10;;;;;;;5.03;93.48;97334.41;5078053;28;20216;-74
2023/12/08 11:27:08;;;;;;;20.70;16.80;;;;;;;5.10;93.66;97340.69;5076691;28;20279;-75